Glenwood Springs, CO (81601)

3:56 PM MST on February 13, 2016 (GMT -0700)
Elk Springs | | Change Station
CLOSE
Current Station
Personal Weather Station
Location: Glenwood Springs, CO
Elevation: 6988 ft
Nearby Weather Stations

Elev 6988 ft 39.48 °N, 107.25 °W | Updated 12 minutes ago

Overcast
Overcast
43.2 °F
Feels Like 37 °F
N
10.9
Wind Variable Wind from NNE

Today
High -- | Low -- °F
--% Chance of Precip.
Yesterday
High -- | Low -- °F
Precip. -- in
Pressure 30.24 in
Visibility 10.0 miles
Clouds Clear
Windchill 37 °F
Dew Point 23 °F
Humidity 45%
Rainfall 0.00 in
Snow Depth Not available.
7:04 AM 5:43 PM
Waxing Crescent, 35% visible
METAR KRIL 132253Z AUTO 06004KT 10SM CLR 04/M04 A3019 RMK AO2 SLP240 T00441044
Pressure 30.24 in
Visibility 10.0 miles
Clouds Clear
Windchill 37 °F
Dew Point 23 °F
Humidity 45%
Rainfall 0.00 in
Snow Depth Not available.
7:04 AM 5:43 PM
Waxing Crescent, 35% visible
METAR KRIL 132253Z AUTO 06004KT 10SM CLR 04/M04 A3019 RMK AO2 SLP240 T00441044

10-Day Weather Forecast

Almanac

Astronomy

Feb. 13, 2016 Rise Set
Actual Time
Civil Twilight
Nautical Twilight
Astronomical Twilight
Moon
Length of Visible Light
Length of Day
Tomorrow will be .
, % of the Moon is Illuminated

Today's Extremes

State Highs State Lows

Community

WunderPhotos

Upload Photos

1,892,689 photos uploaded!

WunderBlog® & News

Nearby

Air Quality

  Air Quality AQ Index Pollutant
Not available.

Snow Depth

Station Depth Elevation

Earthquake Activity

City Distance Mag. Time & Date
Minimum magnitude displayed is 2.5.

Coastal Water Temperatures

Place Temperature

Stations

Nearby Weather Stations

Station Location Temp. Windchill Dew Point Humidity Wind Precip. Elev Updated Type
                   

Watches & Warnings

There are currently no watches in effect.